createdAt,value
2023-02-27T00:06:59.948Z,3.431438127090301
2023-02-27T00:14:08.796Z,3.431438127090301
2023-02-27T00:23:41.567Z,3.451505016722408
2023-02-27T00:32:11.474Z,4.274247491638796
2023-02-27T00:38:48.474Z,3.220735785953177
2023-02-27T00:45:24.392Z,2.8729096989966556
2023-02-27T00:52:02.319Z,3.42809364548495
2023-02-27T01:04:39.498Z,2.8127090301003346
2023-02-27T01:12:05.520Z,2.140468227424749
2023-02-27T01:29:55.444Z,3.5986622073578594
2023-02-27T01:37:25.129Z,2.719063545150502
2023-02-27T01:46:17.944Z,2.0033444816053514
2023-02-27T01:53:22.648Z,2.612040133779264
2023-02-27T02:00:23.060Z,2.939799331103679
2023-02-27T02:07:24.626Z,2.280936454849498
2023-02-27T02:14:31.087Z,2.280936454849498
2023-02-27T02:29:48.818Z,2.528428093645485
2023-02-27T02:36:35.900Z,2.3076923076923075
2023-02-27T02:43:59.560Z,2.4046822742474916
2023-02-27T02:56:38.363Z,1.3177257525083612
2023-02-27T03:03:48.309Z,2.1070234113712374
2023-02-27T03:10:17.394Z,1.68561872909699
2023-02-27T03:30:21.987Z,2.7324414715719065
2023-02-27T03:37:11.085Z,2.190635451505017
2023-02-27T03:49:12.931Z,2.7859531772575252
2023-02-27T03:57:07.394Z,2.317725752508361
2023-02-27T04:10:39.251Z,2.451505016722408
2023-02-27T04:18:30.351Z,3.1538461538461537
2023-02-27T04:25:55.823Z,2.2642140468227425
2023-02-27T04:33:23.760Z,2.702341137123746
2023-02-27T04:39:55.340Z,2.0836120401337794
2023-02-27T04:50:03.288Z,2.3411371237458196
2023-02-27T04:56:44.678Z,1.5183946488294315
2023-02-27T05:04:04.997Z,2.25752508361204
2023-02-27T05:11:27.479Z,2.2474916387959865
2023-02-27T05:19:01.425Z,1.9163879598662208
2023-02-27T05:25:59.431Z,2.4381270903010033
2023-02-27T05:32:35.026Z,1.7692307692307692
2023-02-27T05:39:14.935Z,2.7357859531772575
2023-02-27T05:55:46.383Z,2.31438127090301
2023-02-27T06:02:17.746Z,2.709030100334448
2023-02-27T06:08:53.899Z,2.1103678929765888
2023-02-27T06:19:16.020Z,1.2876254180602007
2023-02-27T06:29:11.811Z,2.2474916387959865
2023-02-27T06:35:44.941Z,2.9063545150501673
2023-02-27T06:42:20.465Z,2.68561872909699
2023-02-27T06:48:54.745Z,2.197324414715719
2023-02-27T06:55:43.681Z,1.7123745819397993
2023-02-27T07:02:45.013Z,2.548494983277592
2023-02-27T07:09:28.183Z,2.5384615384615383
2023-02-27T07:17:28.290Z,2.100334448160535
2023-02-27T07:26:25.941Z,2.5652173913043477
2023-02-27T07:34:07.667Z,2.197324414715719
2023-02-27T07:40:53.812Z,2.234113712374582
2023-02-27T07:47:44.287Z,2.4849498327759196
2023-02-27T07:58:49.432Z,1.7892976588628762
2023-02-27T08:07:17.672Z,2.879598662207358
2023-02-27T08:16:13.242Z,1.9832775919732442
2023-02-27T08:23:20.285Z,2.809364548494983
2023-02-27T08:41:04.613Z,2.157190635451505
2023-02-27T08:47:48.787Z,2.1739130434782608
2023-02-27T08:54:30.841Z,1.9899665551839465
2023-02-27T09:01:18.022Z,1.7692307692307692
2023-02-27T09:08:23.353Z,2.0836120401337794
2023-02-27T09:16:13.318Z,2.160535117056856
2023-02-27T09:22:48.337Z,1.9565217391304348
2023-02-27T09:29:29.076Z,2.1070234113712374
2023-02-27T09:36:12.017Z,1.9264214046822743
2023-02-27T09:45:20.998Z,1.7926421404682273
2023-02-27T09:52:10.001Z,1.5785953177257526
2023-02-27T09:58:47.019Z,1.6722408026755853
2023-02-27T10:10:29.002Z,1.5785953177257526
2023-02-27T10:17:05.849Z,1.7591973244147157
2023-02-27T10:27:05.877Z,1.5752508361204014
2023-02-27T10:33:45.677Z,1.351170568561873
2023-02-27T10:40:25.337Z,1.354515050167224
2023-02-27T10:47:03.867Z,1.491638795986622
2023-02-27T10:53:53.592Z,0.8561872909698997
2023-02-27T11:04:31.160Z,0.7424749163879598
2023-02-27T11:16:32.832Z,1.6421404682274248
2023-02-27T11:23:11.352Z,1.62876254180602
2023-02-27T11:29:52.163Z,1.4046822742474916
2023-02-27T11:47:48.002Z,1.434782608695652
2023-02-27T12:01:31.981Z,1.6789297658862876
2023-02-27T12:08:17.258Z,1.3645484949832776
2023-02-27T12:25:30.365Z,0.6956521739130435
2023-02-27T12:32:11.737Z,0.9364548494983278
2023-02-27T12:38:52.087Z,0.9698996655518395
2023-02-27T12:45:29.647Z,0.33444816053511706
2023-02-27T12:52:01.493Z,0.5518394648829431
2023-02-27T12:58:35.024Z,0.7491638795986622
2023-02-27T13:05:12.559Z,0.5217391304347826
2023-02-27T13:11:42.219Z,1.120401337792642
2023-02-27T13:18:14.555Z,1.0234113712374582
2023-02-27T13:44:29.831Z,0.8193979933110368
2023-02-27T13:51:08.325Z,0.43478260869565216
2023-02-27T13:58:31.581Z,1.7157190635451505
2023-02-27T14:05:12.879Z,0.7959866220735786
2023-02-27T14:11:48.800Z,0.822742474916388
2023-02-27T14:21:14.038Z,0.9498327759197325
2023-02-27T14:27:55.270Z,1.1906354515050168
2023-02-27T14:34:34.573Z,0.9163879598662207
2023-02-27T14:41:17.207Z,1.588628762541806
2023-02-27T14:47:53.701Z,1.0702341137123745
2023-02-27T14:54:30.278Z,1.0301003344481605
2023-02-27T15:02:12.458Z,0.6755852842809364
2023-02-27T15:08:55.519Z,1.2508361204013378
2023-02-27T15:15:38.295Z,0.822742474916388
2023-02-27T15:22:21.404Z,0.7090301003344481
2023-02-27T15:33:43.362Z,1.1103678929765886
2023-02-27T15:40:24.573Z,1.665551839464883
2023-02-27T15:54:22.530Z,0.842809364548495
2023-02-27T16:01:01.001Z,1.2207357859531773
2023-02-27T16:15:34.685Z,0.9096989966555183
2023-02-27T16:22:53.095Z,1.391304347826087
2023-02-27T16:33:39.908Z,0.9297658862876255
2023-02-27T16:40:21.293Z,1.1438127090301002
2023-02-27T16:47:05.304Z,2.05685618729097
2023-02-27T16:53:47.816Z,1.2642140468227425
2023-02-27T17:00:30.466Z,1.294314381270903
2023-02-27T17:07:23.613Z,1.68561872909699
2023-02-27T17:14:10.316Z,1.9364548494983278
2023-02-27T17:21:02.873Z,1.1438127090301002
2023-02-27T17:27:38.295Z,1.3578595317725752
2023-02-27T17:34:17.627Z,3.5953177257525084
2023-02-27T17:41:00.199Z,2.3779264214046822
2023-02-27T17:47:31.290Z,1.5919732441471572
2023-02-27T17:59:11.912Z,2.57190635451505
2023-02-27T18:11:46.873Z,2.5217391304347827
2023-02-27T18:27:02.166Z,4.719063545150502
2023-02-27T18:33:41.667Z,4.478260869565218
2023-02-27T18:40:35.093Z,3.939799331103679
2023-02-27T18:47:15.880Z,4.187290969899665
2023-02-27T18:58:12.380Z,4.026755852842809
2023-02-27T19:05:53.647Z,4.642140468227424
2023-02-27T19:12:29.309Z,4.9397993311036785
2023-02-27T19:19:28.967Z,4.765886287625418
2023-02-27T19:26:08.278Z,3.849498327759197
2023-02-27T19:32:44.955Z,3.4214046822742477
2023-02-27T19:49:17.411Z,3.1137123745819397
2023-02-27T19:55:49.138Z,2.5351170568561874
2023-02-27T20:02:30.056Z,3.240802675585284
2023-02-27T20:09:08.401Z,2.739130434782609
2023-02-27T20:19:49.072Z,2.79933110367893
2023-02-27T20:26:26.482Z,2.25752508361204
2023-02-27T20:33:12.210Z,2.2474916387959865
2023-02-27T20:40:40.592Z,2.37123745819398
2023-02-27T20:51:39.645Z,1.9899665551839465
2023-02-27T20:58:31.044Z,2.3411371237458196
2023-02-27T21:05:22.321Z,2.270903010033445
2023-02-27T21:12:01.737Z,2.2073578595317724
2023-02-27T21:18:41.072Z,2.511705685618729
2023-02-27T21:29:49.510Z,2.802675585284281
2023-02-27T21:36:37.657Z,3.120401337792642
2023-02-27T21:43:13.908Z,2.17056856187291
2023-02-27T21:53:38.328Z,1.6789297658862876
2023-02-27T22:06:42.496Z,2.8729096989966556
2023-02-27T22:13:27.662Z,2.7157190635451505
2023-02-27T22:20:07.949Z,2.7859531772575252
2023-02-27T22:26:47.465Z,3.31438127090301
2023-02-27T22:33:26.684Z,2.190635451505017
2023-02-27T22:40:37.291Z,3.1538461538461537
2023-02-27T22:48:08.697Z,2.3645484949832776
2023-02-27T23:01:03.022Z,1.7290969899665551
2023-02-27T23:07:47.893Z,2.5384615384615383
2023-02-27T23:14:27.339Z,1.4648829431438126
2023-02-27T23:21:21.887Z,2.3444816053511706
2023-02-27T23:33:31.772Z,2.2441471571906355
2023-02-27T23:43:18.081Z,2.1137123745819397
2023-02-27T23:50:10.879Z,2.678929765886288
2023-02-27T23:57:07.694Z,2.0903010033444818
